sensor_id;sensor_type;location;lat;lon;timestamp;pressure;altitude;pressure_sealevel;temperature;humidity
11806;BME280;5960;42.602;23.482;2022-11-25T00:01:14;93117.97;;;5.90;70.14
11806;BME280;5960;42.602;23.482;2022-11-25T00:03:42;93127.09;;;5.94;70.92
11806;BME280;5960;42.602;23.482;2022-11-25T00:06:13;93125.66;;;5.83;70.96
11806;BME280;5960;42.602;23.482;2022-11-25T00:08:41;93115.88;;;5.77;70.74
11806;BME280;5960;42.602;23.482;2022-11-25T00:11:09;93115.28;;;5.67;70.93
11806;BME280;5960;42.602;23.482;2022-11-25T00:13:37;93122.94;;;5.68;71.21
11806;BME280;5960;42.602;23.482;2022-11-25T00:16:07;93117.50;;;5.78;71.38
11806;BME280;5960;42.602;23.482;2022-11-25T00:18:35;93119.00;;;5.72;70.89
11806;BME280;5960;42.602;23.482;2022-11-25T00:21:05;93130.75;;;5.77;70.69
11806;BME280;5960;42.602;23.482;2022-11-25T00:23:32;93125.19;;;5.80;70.71
11806;BME280;5960;42.602;23.482;2022-11-25T00:26:05;93137.47;;;5.71;71.11
11806;BME280;5960;42.602;23.482;2022-11-25T00:28:32;93129.00;;;5.69;71.06
11806;BME280;5960;42.602;23.482;2022-11-25T00:31:03;93134.34;;;5.76;70.93
11806;BME280;5960;42.602;23.482;2022-11-25T00:33:31;93132.09;;;5.64;70.79
11806;BME280;5960;42.602;23.482;2022-11-25T00:35:59;93144.16;;;5.73;70.75
11806;BME280;5960;42.602;23.482;2022-11-25T00:38:27;93137.28;;;5.81;71.30
11806;BME280;5960;42.602;23.482;2022-11-25T00:40:53;93140.25;;;5.78;70.49
11806;BME280;5960;42.602;23.482;2022-11-25T00:43:41;93139.91;;;5.72;70.59
11806;BME280;5960;42.602;23.482;2022-11-25T00:46:25;93136.97;;;5.76;70.69
11806;BME280;5960;42.602;23.482;2022-11-25T00:48:53;93146.13;;;5.80;70.26
11806;BME280;5960;42.602;23.482;2022-11-25T00:51:20;93149.53;;;5.80;70.67
11806;BME280;5960;42.602;23.482;2022-11-25T00:53:46;93138.94;;;5.73;70.49
11806;BME280;5960;42.602;23.482;2022-11-25T00:56:13;93141.88;;;5.79;70.92
11806;BME280;5960;42.602;23.482;2022-11-25T00:58:41;93144.16;;;5.73;72.02
11806;BME280;5960;42.602;23.482;2022-11-25T01:01:09;93140.91;;;5.71;71.40
11806;BME280;5960;42.602;23.482;2022-11-25T01:03:36;93154.63;;;5.73;71.26
11806;BME280;5960;42.602;23.482;2022-11-25T01:06:07;93149.19;;;5.83;71.74
11806;BME280;5960;42.602;23.482;2022-11-25T01:08:36;93153.13;;;5.87;71.50
11806;BME280;5960;42.602;23.482;2022-11-25T01:11:05;93150.03;;;5.84;71.74
11806;BME280;5960;42.602;23.482;2022-11-25T01:13:33;93141.84;;;5.87;71.76
11806;BME280;5960;42.602;23.482;2022-11-25T01:16:00;93145.16;;;5.72;71.71
11806;BME280;5960;42.602;23.482;2022-11-25T01:18:28;93143.69;;;5.70;72.29
11806;BME280;5960;42.602;23.482;2022-11-25T01:20:55;93148.09;;;5.69;72.15
11806;BME280;5960;42.602;23.482;2022-11-25T01:23:23;93144.81;;;5.76;71.46
11806;BME280;5960;42.602;23.482;2022-11-25T01:25:50;93147.09;;;5.79;71.06
11806;BME280;5960;42.602;23.482;2022-11-25T01:28:16;93140.56;;;5.66;71.57
11806;BME280;5960;42.602;23.482;2022-11-25T01:30:43;93141.72;;;5.72;72.10
11806;BME280;5960;42.602;23.482;2022-11-25T01:33:10;93145.47;;;5.69;72.27
11806;BME280;5960;42.602;23.482;2022-11-25T01:35:36;93140.38;;;5.76;71.26
11806;BME280;5960;42.602;23.482;2022-11-25T01:38:03;93147.09;;;5.79;71.25
11806;BME280;5960;42.602;23.482;2022-11-25T01:40:31;93146.59;;;5.83;71.24
11806;BME280;5960;42.602;23.482;2022-11-25T01:42:58;93149.19;;;5.92;71.59
11806;BME280;5960;42.602;23.482;2022-11-25T01:45:33;93148.03;;;5.94;70.97
11806;BME280;5960;42.602;23.482;2022-11-25T01:48:03;93141.63;;;6.05;70.94
11806;BME280;5960;42.602;23.482;2022-11-25T01:50:35;93139.84;;;6.06;69.92
11806;BME280;5960;42.602;23.482;2022-11-25T01:53:05;93139.88;;;5.89;70.76
11806;BME280;5960;42.602;23.482;2022-11-25T01:55:36;93129.41;;;5.89;69.92
11806;BME280;5960;42.602;23.482;2022-11-25T01:58:06;93132.66;;;5.99;69.74
11806;BME280;5960;42.602;23.482;2022-11-25T02:00:35;93132.66;;;5.99;70.23
11806;BME280;5960;42.602;23.482;2022-11-25T02:03:03;93129.38;;;5.97;69.22
11806;BME280;5960;42.602;23.482;2022-11-25T02:05:36;93130.56;;;5.95;70.20
11806;BME280;5960;42.602;23.482;2022-11-25T02:08:05;93123.00;;;6.08;69.36
11806;BME280;5960;42.602;23.482;2022-11-25T02:10:35;93137.25;;;6.06;68.59
11806;BME280;5960;42.602;23.482;2022-11-25T02:13:02;93134.56;;;6.14;68.93
11806;BME280;5960;42.602;23.482;2022-11-25T02:15:30;93141.41;;;6.23;68.76
11806;BME280;5960;42.602;23.482;2022-11-25T02:17:58;93132.72;;;6.31;68.59
11806;BME280;5960;42.602;23.482;2022-11-25T02:20:25;93133.47;;;6.40;68.08
11806;BME280;5960;42.602;23.482;2022-11-25T02:22:58;93137.25;;;6.37;68.13
11806;BME280;5960;42.602;23.482;2022-11-25T02:25:29;93137.25;;;6.37;68.68
11806;BME280;5960;42.602;23.482;2022-11-25T02:27:58;93132.84;;;6.38;67.67
11806;BME280;5960;42.602;23.482;2022-11-25T02:30:27;93144.81;;;6.32;67.13
11806;BME280;5960;42.602;23.482;2022-11-25T02:32:53;93137.97;;;6.23;67.55
11806;BME280;5960;42.602;23.482;2022-11-25T02:35:29;93147.28;;;6.25;68.07
11806;BME280;5960;42.602;23.482;2022-11-25T02:38:00;93145.69;;;6.16;67.51
11806;BME280;5960;42.602;23.482;2022-11-25T02:40:31;93146.22;;;6.03;67.60
11806;BME280;5960;42.602;23.482;2022-11-25T02:42:59;93140.13;;;6.11;67.04
11806;BME280;5960;42.602;23.482;2022-11-25T02:45:32;93139.66;;;6.15;66.63
11806;BME280;5960;42.602;23.482;2022-11-25T02:48:02;93136.09;;;6.00;66.85
11806;BME280;5960;42.602;23.482;2022-11-25T02:50:29;93133.31;;;5.93;67.73
11806;BME280;5960;42.602;23.482;2022-11-25T02:52:56;93135.94;;;6.01;66.60
11806;BME280;5960;42.602;23.482;2022-11-25T02:55:23;93143.13;;;6.08;66.50
11806;BME280;5960;42.602;23.482;2022-11-25T02:57:51;93141.81;;;6.04;67.03
11806;BME280;5960;42.602;23.482;2022-11-25T03:00:18;93136.09;;;6.00;67.51
11806;BME280;5960;42.602;23.482;2022-11-25T03:02:45;93135.25;;;5.99;67.05
11806;BME280;5960;42.602;23.482;2022-11-25T03:05:13;93144.91;;;5.99;67.11
11806;BME280;5960;42.602;23.482;2022-11-25T03:07:39;93141.00;;;5.95;66.77
11806;BME280;5960;42.602;23.482;2022-11-25T03:10:06;93144.75;;;5.92;67.15
11806;BME280;5960;42.602;23.482;2022-11-25T03:12:33;93146.38;;;5.93;66.98
11806;BME280;5960;42.602;23.482;2022-11-25T03:15:01;93143.81;;;5.85;67.45
11806;BME280;5960;42.602;23.482;2022-11-25T03:17:28;93152.16;;;5.80;68.61
11806;BME280;5960;42.602;23.482;2022-11-25T03:19:55;93150.22;;;5.74;68.29
11806;BME280;5960;42.602;23.482;2022-11-25T03:22:22;93156.91;;;5.68;68.86
11806;BME280;5960;42.602;23.482;2022-11-25T03:24:48;93155.44;;;5.66;68.73
11806;BME280;5960;42.602;23.482;2022-11-25T03:27:15;93149.75;;;5.62;69.21
11806;BME280;5960;42.602;23.482;2022-11-25T03:29:42;93154.63;;;5.65;70.00
11806;BME280;5960;42.602;23.482;2022-11-25T03:32:10;93155.75;;;5.79;69.64
11806;BME280;5960;42.602;23.482;2022-11-25T03:34:37;93148.25;;;5.68;70.40
11806;BME280;5960;42.602;23.482;2022-11-25T03:37:03;93154.63;;;5.65;70.05
11806;BME280;5960;42.602;23.482;2022-11-25T03:39:30;93160.22;;;5.62;70.72
11806;BME280;5960;42.602;23.482;2022-11-25T03:41:57;93180.47;;;5.60;70.46
11806;BME280;5960;42.602;23.482;2022-11-25T03:44:24;93165.75;;;5.59;70.78
11806;BME280;5960;42.602;23.482;2022-11-25T03:46:50;93178.66;;;5.61;70.53
11806;BME280;5960;42.602;23.482;2022-11-25T03:49:18;93171.31;;;5.48;71.71
11806;BME280;5960;42.602;23.482;2022-11-25T03:51:46;93179.81;;;5.58;71.54
11806;BME280;5960;42.602;23.482;2022-11-25T03:54:13;93177.69;;;5.45;72.27
11806;BME280;5960;42.602;23.482;2022-11-25T03:56:40;93174.91;;;5.47;72.50
11806;BME280;5960;42.602;23.482;2022-11-25T03:59:06;93181.94;;;5.46;72.84
11806;BME280;5960;42.602;23.482;2022-11-25T04:01:33;93177.03;;;5.43;73.06
11806;BME280;5960;42.602;23.482;2022-11-25T04:04:00;93188.13;;;5.53;72.66
11806;BME280;5960;42.602;23.482;2022-11-25T04:06:28;93183.56;;;5.47;73.66
11806;BME280;5960;42.602;23.482;2022-11-25T04:08:56;93202.34;;;5.42;74.13
11806;BME280;5960;42.602;23.482;2022-11-25T04:11:23;93196.47;;;5.40;73.55
11806;BME280;5960;42.602;23.482;2022-11-25T04:14:10;93206.28;;;5.38;73.76
11806;BME280;5960;42.602;23.482;2022-11-25T04:16:35;93206.94;;;5.40;73.45
11806;BME280;5960;42.602;23.482;2022-11-25T04:19:02;93210.81;;;5.45;74.15
11806;BME280;5960;42.602;23.482;2022-11-25T04:21:30;93210.50;;;5.48;74.28
11806;BME280;5960;42.602;23.482;2022-11-25T04:23:57;93219.47;;;5.37;73.27
11806;BME280;5960;42.602;23.482;2022-11-25T04:26:24;93217.03;;;5.35;73.88
11806;BME280;5960;42.602;23.482;2022-11-25T04:28:50;93218.81;;;5.35;73.46
11806;BME280;5960;42.602;23.482;2022-11-25T04:31:17;93219.31;;;5.30;74.22
11806;BME280;5960;42.602;23.482;2022-11-25T04:33:44;93218.00;;;5.26;74.34
11806;BME280;5960;42.602;23.482;2022-11-25T04:36:10;93225.19;;;5.24;73.97
11806;BME280;5960;42.602;23.482;2022-11-25T04:38:39;93227.78;;;5.24;74.25
11806;BME280;5960;42.602;23.482;2022-11-25T04:41:05;93230.06;;;5.19;73.75
11806;BME280;5960;42.602;23.482;2022-11-25T04:43:32;93234.97;;;5.14;74.73
11806;BME280;5960;42.602;23.482;2022-11-25T04:45:59;93238.25;;;5.24;73.76
11806;BME280;5960;42.602;23.482;2022-11-25T04:48:27;93247.38;;;5.20;73.84
11806;BME280;5960;42.602;23.482;2022-11-25T04:50:53;93248.22;;;5.20;73.57
11806;BME280;5960;42.602;23.482;2022-11-25T04:53:20;93250.47;;;5.15;73.41
11806;BME280;5960;42.602;23.482;2022-11-25T04:55:48;93257.34;;;5.16;73.62
11806;BME280;5960;42.602;23.482;2022-11-25T04:58:15;93262.72;;;5.15;73.31
11806;BME280;5960;42.602;23.482;2022-11-25T05:01:02;93259.44;;;5.21;73.48
11806;BME280;5960;42.602;23.482;2022-11-25T05:03:28;93264.69;;;5.21;73.12
11806;BME280;5960;42.602;23.482;2022-11-25T05:05:55;93259.44;;;5.21;73.55
11806;BME280;5960;42.602;23.482;2022-11-25T05:08:21;93267.94;;;5.15;74.14
11806;BME280;5960;42.602;23.482;2022-11-25T05:10:49;93271.06;;;5.18;74.36
11806;BME280;5960;42.602;23.482;2022-11-25T05:13:16;93277.09;;;5.10;74.06
11806;BME280;5960;42.602;23.482;2022-11-25T05:15:43;93290.47;;;5.16;73.83
11806;BME280;5960;42.602;23.482;2022-11-25T05:18:09;93279.69;;;5.10;74.42
11806;BME280;5960;42.602;23.482;2022-11-25T05:20:36;93286.38;;;5.13;75.91
11806;BME280;5960;42.602;23.482;2022-11-25T05:23:03;93286.06;;;5.33;76.73
11806;BME280;5960;42.602;23.482;2022-11-25T05:25:29;93281.69;;;5.50;76.57
11806;BME280;5960;42.602;23.482;2022-11-25T05:27:58;93289.03;;;5.54;74.48
11806;BME280;5960;42.602;23.482;2022-11-25T05:30:24;93299.00;;;5.51;73.66
11806;BME280;5960;42.602;23.482;2022-11-25T05:32:51;93301.28;;;5.46;73.51
11806;BME280;5960;42.602;23.482;2022-11-25T05:35:18;93310.41;;;5.41;73.24
11806;BME280;5960;42.602;23.482;2022-11-25T05:37:46;93314.00;;;5.32;72.88
11806;BME280;5960;42.602;23.482;2022-11-25T05:40:13;93316.97;;;5.37;72.54
11806;BME280;5960;42.602;23.482;2022-11-25T05:42:41;93323.47;;;5.33;72.89
11806;BME280;5960;42.602;23.482;2022-11-25T05:45:09;93330.47;;;5.33;72.65
11806;BME280;5960;42.602;23.482;2022-11-25T05:47:36;93333.25;;;5.31;71.96
11806;BME280;5960;42.602;23.482;2022-11-25T05:50:04;93339.78;;;5.27;71.65
11806;BME280;5960;42.602;23.482;2022-11-25T05:52:31;93339.47;;;5.30;71.69
11806;BME280;5960;42.602;23.482;2022-11-25T05:54:57;93343.91;;;5.54;75.23
11806;BME280;5960;42.602;23.482;2022-11-25T05:57:24;93344.59;;;5.65;73.52
11806;BME280;5960;42.602;23.482;2022-11-25T05:59:52;93349.69;;;5.83;73.94
11806;BME280;5960;42.602;23.482;2022-11-25T06:02:21;93356.19;;;5.95;71.95
11806;BME280;5960;42.602;23.482;2022-11-25T06:04:47;93354.75;;;6.09;71.17
11806;BME280;5960;42.602;23.482;2022-11-25T06:07:14;93355.56;;;6.18;68.81
11806;BME280;5960;42.602;23.482;2022-11-25T06:09:41;93354.25;;;6.14;68.31
11806;BME280;5960;42.602;23.482;2022-11-25T06:12:07;93364.22;;;6.27;67.93
11806;BME280;5960;42.602;23.482;2022-11-25T06:14:34;93371.28;;;6.26;67.89
11806;BME280;5960;42.602;23.482;2022-11-25T06:17:01;93369.13;;;6.30;68.32
11806;BME280;5960;42.602;23.482;2022-11-25T06:19:30;93370.88;;;6.71;66.05
11806;BME280;5960;42.602;23.482;2022-11-25T06:21:57;93374.06;;;6.98;64.57
11806;BME280;5960;42.602;23.482;2022-11-25T06:24:23;93371.53;;;6.73;64.82
11806;BME280;5960;42.602;23.482;2022-11-25T06:26:50;93380.38;;;6.72;64.81
11806;BME280;5960;42.602;23.482;2022-11-25T06:29:17;93375.50;;;6.52;65.59
11806;BME280;5960;42.602;23.482;2022-11-25T06:31:43;93380.09;;;6.42;65.25
11806;BME280;5960;42.602;23.482;2022-11-25T06:34:10;93381.88;;;6.25;67.03
11806;BME280;5960;42.602;23.482;2022-11-25T06:36:38;93396.44;;;6.19;66.83
11806;BME280;5960;42.602;23.482;2022-11-25T06:39:05;93406.91;;;6.19;67.14
11806;BME280;5960;42.602;23.482;2022-11-25T06:41:32;93408.03;;;6.08;66.95
11806;BME280;5960;42.602;23.482;2022-11-25T06:43:58;93390.56;;;6.00;66.78
11806;BME280;5960;42.602;23.482;2022-11-25T06:46:25;93408.19;;;5.98;66.89
11806;BME280;5960;42.602;23.482;2022-11-25T06:48:52;93409.13;;;5.89;67.44
11806;BME280;5960;42.602;23.482;2022-11-25T06:51:19;93408.16;;;5.90;66.73
11806;BME280;5960;42.602;23.482;2022-11-25T06:53:47;93424.22;;;6.04;66.30
11806;BME280;5960;42.602;23.482;2022-11-25T06:56:16;93421.75;;;6.02;66.02
11806;BME280;5960;42.602;23.482;2022-11-25T06:58:44;93427.66;;;6.04;66.36
11806;BME280;5960;42.602;23.482;2022-11-25T07:01:13;93418.34;;;6.18;65.95
11806;BME280;5960;42.602;23.482;2022-11-25T07:03:41;93424.56;;;6.25;65.40
11806;BME280;5960;42.602;23.482;2022-11-25T07:06:08;93431.09;;;6.38;65.45
11806;BME280;5960;42.602;23.482;2022-11-25T07:08:35;93423.44;;;6.36;66.01
11806;BME280;5960;42.602;23.482;2022-11-25T07:11:05;93427.34;;;6.48;65.95
11806;BME280;5960;42.602;23.482;2022-11-25T07:13:33;93431.44;;;6.51;65.53
11806;BME280;5960;42.602;23.482;2022-11-25T07:16:00;93429.13;;;6.65;64.60
11806;BME280;5960;42.602;23.482;2022-11-25T07:18:29;93429.94;;;6.73;64.74
11806;BME280;5960;42.602;23.482;2022-11-25T07:21:01;93428.28;;;6.89;64.66
11806;BME280;5960;42.602;23.482;2022-11-25T07:23:27;93428.09;;;6.99;64.63
11806;BME280;5960;42.602;23.482;2022-11-25T07:25:54;93429.09;;;6.89;64.07
11806;BME280;5960;42.602;23.482;2022-11-25T07:28:22;93429.06;;;6.98;63.57
11806;BME280;5960;42.602;23.482;2022-11-25T07:30:49;93434.41;;;7.21;62.99
11806;BME280;5960;42.602;23.482;2022-11-25T07:33:16;93424.69;;;7.30;63.20
11806;BME280;5960;42.602;23.482;2022-11-25T07:35:42;93433.72;;;7.35;61.96
11806;BME280;5960;42.602;23.482;2022-11-25T07:38:09;93440.41;;;7.38;62.17
11806;BME280;5960;42.602;23.482;2022-11-25T07:40:37;93432.16;;;7.10;61.80
11806;BME280;5960;42.602;23.482;2022-11-25T07:43:04;93440.47;;;7.13;63.40
11806;BME280;5960;42.602;23.482;2022-11-25T07:45:32;93434.44;;;7.04;62.57
11806;BME280;5960;42.602;23.482;2022-11-25T07:47:59;93430.06;;;6.97;62.71
11806;BME280;5960;42.602;23.482;2022-11-25T07:50:27;93442.84;;;6.91;62.84
11806;BME280;5960;42.602;23.482;2022-11-25T07:52:54;93448.22;;;6.98;63.07
11806;BME280;5960;42.602;23.482;2022-11-25T07:55:20;93453.81;;;6.78;62.88
11806;BME280;5960;42.602;23.482;2022-11-25T07:57:47;93459.72;;;6.81;63.81
11806;BME280;5960;42.602;23.482;2022-11-25T08:00:15;93457.41;;;6.69;64.27
11806;BME280;5960;42.602;23.482;2022-11-25T08:02:43;93463.63;;;6.85;64.24
11806;BME280;5960;42.602;23.482;2022-11-25T08:05:09;93464.72;;;7.07;63.22
11806;BME280;5960;42.602;23.482;2022-11-25T08:07:37;93470.13;;;7.62;62.85
11806;BME280;5960;42.602;23.482;2022-11-25T08:10:04;93472.16;;;8.15;59.96
11806;BME280;5960;42.602;23.482;2022-11-25T08:12:31;93465.56;;;8.50;58.83
11806;BME280;5960;42.602;23.482;2022-11-25T08:14:59;93465.28;;;8.98;56.51
11806;BME280;5960;42.602;23.482;2022-11-25T08:17:25;93466.22;;;9.06;57.21
11806;BME280;5960;42.602;23.482;2022-11-25T08:19:53;93458.59;;;9.71;54.73
11806;BME280;5960;42.602;23.482;2022-11-25T08:22:20;93466.97;;;10.33;53.54
11806;BME280;5960;42.602;23.482;2022-11-25T08:24:47;93455.41;;;10.71;51.51
11806;BME280;5960;42.602;23.482;2022-11-25T08:27:14;93462.94;;;11.02;51.52
11806;BME280;5960;42.602;23.482;2022-11-25T08:29:40;93460.44;;;11.57;49.17
11806;BME280;5960;42.602;23.482;2022-11-25T08:32:07;93461.25;;;11.51;48.60
11806;BME280;5960;42.602;23.482;2022-11-25T08:34:34;93464.59;;;12.09;48.37
11806;BME280;5960;42.602;23.482;2022-11-25T08:37:02;93475.03;;;12.57;47.96
11806;BME280;5960;42.602;23.482;2022-11-25T08:39:29;93472.84;;;13.01;46.38
11806;BME280;5960;42.602;23.482;2022-11-25T08:41:56;93473.22;;;12.58;46.59
11806;BME280;5960;42.602;23.482;2022-11-25T08:44:22;93481.59;;;12.82;46.24
11806;BME280;5960;42.602;23.482;2022-11-25T08:46:52;93468.38;;;12.88;45.69
11806;BME280;5960;42.602;23.482;2022-11-25T08:49:19;93461.06;;;13.17;44.56
11806;BME280;5960;42.602;23.482;2022-11-25T08:51:46;93468.19;;;13.23;44.73
11806;BME280;5960;42.602;23.482;2022-11-25T08:54:15;93465.91;;;13.34;44.37
11806;BME280;5960;42.602;23.482;2022-11-25T08:56:41;93466.94;;;13.06;44.59
11806;BME280;5960;42.602;23.482;2022-11-25T08:59:08;93459.78;;;13.67;44.31
11806;BME280;5960;42.602;23.482;2022-11-25T09:01:35;93469.94;;;14.29;43.43
11806;BME280;5960;42.602;23.482;2022-11-25T09:04:02;93469.25;;;14.79;42.40
11806;BME280;5960;42.602;23.482;2022-11-25T09:06:29;93469.72;;;15.27;41.00
11806;BME280;5960;42.602;23.482;2022-11-25T09:08:56;93466.03;;;15.53;40.24
11806;BME280;5960;42.602;23.482;2022-11-25T09:11:26;93471.19;;;15.85;40.06
11806;BME280;5960;42.602;23.482;2022-11-25T09:13:53;93460.59;;;16.22;38.97
11806;BME280;5960;42.602;23.482;2022-11-25T09:16:20;93466.91;;;16.40;37.94
11806;BME280;5960;42.602;23.482;2022-11-25T09:18:47;93472.13;;;15.98;38.73
11806;BME280;5960;42.602;23.482;2022-11-25T09:21:15;93476.75;;;15.65;39.31
11806;BME280;5960;42.602;23.482;2022-11-25T09:23:43;93475.75;;;15.78;38.46
11806;BME280;5960;42.602;23.482;2022-11-25T09:26:18;93470.19;;;16.05;38.70
11806;BME280;5960;42.602;23.482;2022-11-25T09:28:47;93478.72;;;16.44;37.89
11806;BME280;5960;42.602;23.482;2022-11-25T09:31:14;93477.53;;;16.40;37.64
11806;BME280;5960;42.602;23.482;2022-11-25T09:33:41;93475.22;;;16.74;36.80
11806;BME280;5960;42.602;23.482;2022-11-25T09:36:08;93481.72;;;16.78;37.60
11806;BME280;5960;42.602;23.482;2022-11-25T09:38:36;93488.94;;;17.32;36.64
11806;BME280;5960;42.602;23.482;2022-11-25T09:41:06;93483.25;;;17.64;36.11
11806;BME280;5960;42.602;23.482;2022-11-25T09:43:40;93483.63;;;17.92;35.28
11806;BME280;5960;42.602;23.482;2022-11-25T09:46:38;93484.16;;;18.58;34.65
11806;BME280;5960;42.602;23.482;2022-11-25T09:49:28;93478.03;;;18.17;34.12
11806;BME280;5960;42.602;23.482;2022-11-25T09:52:05;93484.47;;;18.74;34.07
11806;BME280;5960;42.602;23.482;2022-11-25T09:54:37;93475.72;;;19.59;32.50
11806;BME280;5960;42.602;23.482;2022-11-25T09:57:17;93475.22;;;19.79;32.10
11806;BME280;5960;42.602;23.482;2022-11-25T09:59:54;93479.41;;;20.31;31.82
11806;BME280;5960;42.602;23.482;2022-11-25T10:02:28;93479.63;;;20.74;31.20
11806;BME280;5960;42.602;23.482;2022-11-25T10:05:02;93483.53;;;21.81;29.51
11806;BME280;5960;42.602;23.482;2022-11-25T10:07:38;93481.06;;;22.17;29.11
11806;BME280;5960;42.602;23.482;2022-11-25T10:10:14;93476.28;;;22.30;28.87
11806;BME280;5960;42.602;23.482;2022-11-25T10:12:44;93475.75;;;23.07;27.45
11806;BME280;5960;42.602;23.482;2022-11-25T10:15:15;93472.09;;;22.44;28.23
11806;BME280;5960;42.602;23.482;2022-11-25T10:17:47;93472.16;;;22.12;28.38
11806;BME280;5960;42.602;23.482;2022-11-25T10:20:19;93488.28;;;21.69;29.01
11806;BME280;5960;42.602;23.482;2022-11-25T10:22:48;93487.94;;;21.98;28.77
11806;BME280;5960;42.602;23.482;2022-11-25T10:25:18;93477.53;;;22.60;27.99
11806;BME280;5960;42.602;23.482;2022-11-25T10:27:49;93481.81;;;21.64;28.93
11806;BME280;5960;42.602;23.482;2022-11-25T10:30:19;93482.34;;;19.73;31.21
11806;BME280;5960;42.602;23.482;2022-11-25T10:32:51;93485.59;;;17.60;33.92
11806;BME280;5960;42.602;23.482;2022-11-25T10:35:25;93478.91;;;16.12;36.29
11806;BME280;5960;42.602;23.482;2022-11-25T10:37:55;93481.72;;;16.17;37.44
11806;BME280;5960;42.602;23.482;2022-11-25T10:40:24;93484.50;;;17.02;35.78
11806;BME280;5960;42.602;23.482;2022-11-25T10:42:51;93483.63;;;16.10;36.81
11806;BME280;5960;42.602;23.482;2022-11-25T10:45:20;93493.78;;;15.07;38.61
11806;BME280;5960;42.602;23.482;2022-11-25T10:48:04;93496.34;;;14.04;40.84
11806;BME280;5960;42.602;23.482;2022-11-25T10:50:38;93487.50;;;12.84;43.43
11806;BME280;5960;42.602;23.482;2022-11-25T10:53:11;93495.38;;;12.50;44.45
11806;BME280;5960;42.602;23.482;2022-11-25T10:55:55;93499.75;;;13.45;43.97
11806;BME280;5960;42.602;23.482;2022-11-25T10:58:27;93486.69;;;12.97;43.44
11806;BME280;5960;42.602;23.482;2022-11-25T11:01:02;93491.91;;;14.82;40.72
11806;BME280;5960;42.602;23.482;2022-11-25T11:03:31;93485.19;;;17.09;35.92
11806;BME280;5960;42.602;23.482;2022-11-25T11:05:57;93479.94;;;17.45;34.75
11806;BME280;5960;42.602;23.482;2022-11-25T11:08:26;93490.91;;;17.60;34.33
11806;BME280;5960;42.602;23.482;2022-11-25T11:11:16;93490.53;;;18.86;32.54
11806;BME280;5960;42.602;23.482;2022-11-25T11:13:43;93493.88;;;19.91;31.57
11806;BME280;5960;42.602;23.482;2022-11-25T11:16:28;93493.97;;;20.40;30.00
11806;BME280;5960;42.602;23.482;2022-11-25T11:18:57;93500.13;;;20.41;30.79
11806;BME280;5960;42.602;23.482;2022-11-25T11:21:29;93502.75;;;19.11;31.78
11806;BME280;5960;42.602;23.482;2022-11-25T11:23:57;93495.19;;;18.21;33.17
11806;BME280;5960;42.602;23.482;2022-11-25T11:26:26;93501.50;;;17.01;35.08
11806;BME280;5960;42.602;23.482;2022-11-25T11:28:59;93510.03;;;15.86;36.86
11806;BME280;5960;42.602;23.482;2022-11-25T11:31:29;93503.66;;;14.93;38.56
11806;BME280;5960;42.602;23.482;2022-11-25T11:34:07;93517.41;;;13.51;41.92
11806;BME280;5960;42.602;23.482;2022-11-25T11:36:46;93522.59;;;12.44;44.34
11806;BME280;5960;42.602;23.482;2022-11-25T11:39:35;93520.13;;;11.58;46.85
11806;BME280;5960;42.602;23.482;2022-11-25T11:42:15;93519.00;;;10.89;48.45
11806;BME280;5960;42.602;23.482;2022-11-25T11:44:58;93516.75;;;10.28;50.21
11806;BME280;5960;42.602;23.482;2022-11-25T11:47:33;93516.19;;;9.81;52.06
11806;BME280;5960;42.602;23.482;2022-11-25T11:50:18;93527.63;;;9.58;52.92
11806;BME280;5960;42.602;23.482;2022-11-25T11:52:54;93534.13;;;9.32;53.85
11806;BME280;5960;42.602;23.482;2022-11-25T11:55:31;93524.03;;;9.06;55.24
11806;BME280;5960;42.602;23.482;2022-11-25T11:58:08;93517.97;;;9.20;55.20
11806;BME280;5960;42.602;23.482;2022-11-25T12:00:44;93526.69;;;9.36;55.15
11806;BME280;5960;42.602;23.482;2022-11-25T12:03:15;93529.56;;;9.26;54.94
11806;BME280;5960;42.602;23.482;2022-11-25T12:05:46;93521.91;;;9.01;55.65
11806;BME280;5960;42.602;23.482;2022-11-25T12:08:22;93523.06;;;8.83;55.85
11806;BME280;5960;42.602;23.482;2022-11-25T12:10:54;93517.56;;;8.93;56.11
11806;BME280;5960;42.602;23.482;2022-11-25T12:13:26;93533.28;;;9.16;55.44
11806;BME280;5960;42.602;23.482;2022-11-25T12:16:00;93539.28;;;9.25;55.64
11806;BME280;5960;42.602;23.482;2022-11-25T12:18:39;93530.69;;;9.46;54.78
11806;BME280;5960;42.602;23.482;2022-11-25T12:21:23;93524.28;;;9.64;54.13
11806;BME280;5960;42.602;23.482;2022-11-25T12:23:59;93529.25;;;10.26;53.75
11806;BME280;5960;42.602;23.482;2022-11-25T12:26:35;93530.16;;;10.48;52.47
11806;BME280;5960;42.602;23.482;2022-11-25T12:29:08;93531.94;;;10.84;51.73
11806;BME280;5960;42.602;23.482;2022-11-25T12:31:40;93524.19;;;11.04;51.35
11806;BME280;5960;42.602;23.482;2022-11-25T12:34:12;93525.94;;;11.19;50.66
11806;BME280;5960;42.602;23.482;2022-11-25T12:36:44;93520.56;;;10.40;52.12
11806;BME280;5960;42.602;23.482;2022-11-25T12:39:18;93530.84;;;10.20;52.96
11806;BME280;5960;42.602;23.482;2022-11-25T12:41:50;93525.22;;;10.08;53.50
11806;BME280;5960;42.602;23.482;2022-11-25T12:44:22;93526.06;;;9.93;53.71
11806;BME280;5960;42.602;23.482;2022-11-25T12:46:52;93531.63;;;9.69;54.61
11806;BME280;5960;42.602;23.482;2022-11-25T12:49:21;93523.25;;;9.35;55.18
11806;BME280;5960;42.602;23.482;2022-11-25T12:52:16;93527.59;;;9.28;55.52
11806;BME280;5960;42.602;23.482;2022-11-25T12:55:13;93524.41;;;9.17;55.71
11806;BME280;5960;42.602;23.482;2022-11-25T12:58:16;93520.25;;;9.83;54.53
11806;BME280;5960;42.602;23.482;2022-11-25T13:04:04;93512.88;;;11.67;49.32
11806;BME280;5960;42.602;23.482;2022-11-25T13:12:41;93504.16;;;16.21;39.11
11806;BME280;5960;42.602;23.482;2022-11-25T13:15:19;93510.16;;;17.74;36.18
11806;BME280;5960;42.602;23.482;2022-11-25T13:17:48;93510.06;;;17.03;36.42
11806;BME280;5960;42.602;23.482;2022-11-25T13:20:41;93503.56;;;15.06;39.44
11806;BME280;5960;42.602;23.482;2022-11-25T13:23:23;93512.31;;;13.63;42.76
11806;BME280;5960;42.602;23.482;2022-11-25T13:25:53;93513.31;;;12.82;48.75
11806;BME280;5960;42.602;23.482;2022-11-25T13:28:39;93512.13;;;12.98;49.07
11806;BME280;5960;42.602;23.482;2022-11-25T13:31:18;93513.72;;;12.72;46.23